createdAt,value
2023-01-19T00:00:53.590Z,7.68
2023-01-19T00:03:20.507Z,8.73
2023-01-19T00:05:47.394Z,6.57
2023-01-19T00:08:14.738Z,7.68
2023-01-19T00:10:53.689Z,6.70
2023-01-19T00:13:20.522Z,6.15
2023-01-19T00:15:47.321Z,6.57
2023-01-19T00:18:14.195Z,6.22
2023-01-19T00:20:41.534Z,8.27
2023-01-19T00:23:09.425Z,6.95
2023-01-19T00:25:42.422Z,6.57
2023-01-19T00:28:11.072Z,6.45
2023-01-19T00:30:39.658Z,7.45
2023-01-19T00:33:06.488Z,6.90
2023-01-19T00:35:34.805Z,7.75
2023-01-19T00:38:02.338Z,5.70
2023-01-19T00:40:29.143Z,6.03
2023-01-19T00:42:55.924Z,5.03
2023-01-19T00:45:24.255Z,6.05
2023-01-19T00:48:04.114Z,4.47
2023-01-19T00:50:32.055Z,5.75
2023-01-19T00:53:03.344Z,4.22
2023-01-19T00:55:32.626Z,5.30
2023-01-19T00:57:59.511Z,4.85
2023-01-19T01:00:26.773Z,4.72
2023-01-19T01:02:53.968Z,6.03
2023-01-19T01:05:21.841Z,4.88
2023-01-19T01:07:49.572Z,5.47
2023-01-19T01:10:21.760Z,5.90
2023-01-19T01:12:57.411Z,6.60
2023-01-19T01:15:27.363Z,7.47
2023-01-19T01:17:54.453Z,7.20
2023-01-19T01:20:25.224Z,7.03
2023-01-19T01:22:53.655Z,7.70
2023-01-19T01:25:25.239Z,8.38
2023-01-19T01:27:52.625Z,10.35
2023-01-19T01:30:20.094Z,9.65
2023-01-19T01:32:47.226Z,9.10
2023-01-19T01:35:14.912Z,7.97
2023-01-19T01:37:42.872Z,7.55
2023-01-19T01:40:13.303Z,7.45
2023-01-19T01:42:40.603Z,7.05
2023-01-19T01:45:25.800Z,8.82
2023-01-19T01:47:54.631Z,6.88
2023-01-19T01:50:24.567Z,8.68
2023-01-19T01:53:11.488Z,9.68
2023-01-19T01:55:43.987Z,10.75
2023-01-19T01:58:11.716Z,10.40
2023-01-19T02:00:59.228Z,11.70
2023-01-19T02:03:26.929Z,8.80
2023-01-19T02:05:59.955Z,13.98
2023-01-19T02:09:08.733Z,10.68
2023-01-19T02:11:55.191Z,11.13
2023-01-19T02:14:22.326Z,9.40
2023-01-19T02:16:49.347Z,13.55
2023-01-19T02:19:27.381Z,13.27
2023-01-19T02:22:19.251Z,12.50
2023-01-19T02:24:46.465Z,11.57
2023-01-19T02:27:13.390Z,11.95
2023-01-19T02:29:40.348Z,10.63
2023-01-19T02:32:07.275Z,10.43
2023-01-19T02:34:34.402Z,10.70
2023-01-19T02:37:06.451Z,9.35
2023-01-19T02:39:58.885Z,8.02
2023-01-19T02:42:58.631Z,8.43
2023-01-19T02:45:28.199Z,8.48
2023-01-19T02:47:55.126Z,8.80
2023-01-19T02:50:53.068Z,10.10
2023-01-19T02:53:37.612Z,8.73
2023-01-19T02:56:32.394Z,13.88
2023-01-19T02:59:04.758Z,12.32
2023-01-19T03:01:38.728Z,10.50
2023-01-19T03:04:13.263Z,20.02
2023-01-19T03:06:51.787Z,19.75
2023-01-19T03:09:29.418Z,19.38
2023-01-19T03:12:14.854Z,13.45
2023-01-19T03:14:46.209Z,13.82
2023-01-19T03:17:16.394Z,11.98
2023-01-19T03:19:47.129Z,11.82
2023-01-19T03:22:18.827Z,13.35
2023-01-19T03:24:47.770Z,11.05
2023-01-19T03:27:26.107Z,10.52
2023-01-19T03:30:01.215Z,12.50
2023-01-19T03:32:35.526Z,9.57
2023-01-19T03:37:34.006Z,11.02
2023-01-19T03:40:00.856Z,9.55
2023-01-19T03:42:28.677Z,9.07
2023-01-19T03:44:57.234Z,10.35
2023-01-19T03:47:25.136Z,9.50
2023-01-19T03:49:53.389Z,10.30
2023-01-19T03:52:33.499Z,13.85
2023-01-19T03:55:01.831Z,15.48
2023-01-19T03:57:28.617Z,14.27
2023-01-19T03:59:55.864Z,16.70
2023-01-19T04:02:23.721Z,15.13
2023-01-19T04:04:50.693Z,12.18
2023-01-19T04:07:17.428Z,14.13
2023-01-19T04:09:44.556Z,13.00
2023-01-19T04:12:11.376Z,15.90
2023-01-19T04:14:38.116Z,17.33
2023-01-19T04:17:04.848Z,21.38
2023-01-19T04:19:31.569Z,27.33
2023-01-19T04:21:58.731Z,27.00
2023-01-19T04:24:25.533Z,20.85
2023-01-19T04:26:53.605Z,19.20
2023-01-19T04:29:20.419Z,19.27
2023-01-19T04:31:47.193Z,15.15
2023-01-19T04:34:18.713Z,16.80
2023-01-19T04:36:46.639Z,20.30
2023-01-19T04:39:13.354Z,19.17
2023-01-19T04:41:40.051Z,20.20
2023-01-19T04:44:07.407Z,27.08
2023-01-19T04:46:34.861Z,16.02
2023-01-19T04:49:03.101Z,19.45
2023-01-19T04:51:29.983Z,16.17
2023-01-19T04:53:57.755Z,14.75
2023-01-19T04:56:24.682Z,15.98
2023-01-19T04:58:51.501Z,16.98
2023-01-19T05:01:18.578Z,17.70
2023-01-19T05:03:45.381Z,15.10
2023-01-19T05:06:12.553Z,12.65
2023-01-19T05:08:39.367Z,12.98
2023-01-19T05:11:06.143Z,15.95
2023-01-19T05:13:33.483Z,17.85
2023-01-19T05:16:01.421Z,18.23
2023-01-19T05:18:28.177Z,18.92
2023-01-19T05:20:54.949Z,18.55
2023-01-19T05:23:21.908Z,18.58
2023-01-19T05:25:48.646Z,22.13
2023-01-19T05:28:16.706Z,26.63
2023-01-19T05:30:43.477Z,22.50
2023-01-19T05:33:10.429Z,17.45
2023-01-19T05:35:37.169Z,17.75
2023-01-19T05:38:04.495Z,18.77
2023-01-19T05:40:31.283Z,18.90
2023-01-19T05:43:01.026Z,17.70
2023-01-19T05:45:28.534Z,15.75
2023-01-19T05:47:55.731Z,16.67
2023-01-19T05:50:22.606Z,15.55
2023-01-19T05:52:49.403Z,17.08
2023-01-19T05:55:16.595Z,15.50
2023-01-19T05:57:43.393Z,16.52
2023-01-19T06:00:10.826Z,17.85
2023-01-19T06:02:37.514Z,17.33
2023-01-19T06:05:04.654Z,15.70
2023-01-19T06:07:34.151Z,15.63
2023-01-19T06:10:01.254Z,15.25
2023-01-19T06:12:28.128Z,16.67
2023-01-19T06:14:54.855Z,20.45
2023-01-19T06:17:21.745Z,20.05
2023-01-19T06:19:48.565Z,18.73
2023-01-19T06:22:15.392Z,15.98
2023-01-19T06:24:42.148Z,17.70
2023-01-19T06:27:09.130Z,20.55
2023-01-19T06:29:35.991Z,19.95
2023-01-19T06:32:03.293Z,16.13
2023-01-19T06:34:30.260Z,16.98
2023-01-19T06:36:57.423Z,16.40
2023-01-19T06:39:24.645Z,16.38
2023-01-19T06:41:51.909Z,17.65
2023-01-19T06:44:18.664Z,14.20
2023-01-19T06:46:45.528Z,13.25
2023-01-19T06:49:12.294Z,13.95
2023-01-19T06:51:39.047Z,11.70
2023-01-19T06:54:05.914Z,14.90
2023-01-19T06:56:32.791Z,13.00
2023-01-19T06:58:59.626Z,14.70
2023-01-19T07:01:26.985Z,13.68
2023-01-19T07:03:54.493Z,11.90
2023-01-19T07:06:21.244Z,12.98
2023-01-19T07:08:47.998Z,12.23
2023-01-19T07:11:25.674Z,14.73
2023-01-19T07:13:57.887Z,14.48
2023-01-19T07:16:24.934Z,12.68
2023-01-19T07:18:51.699Z,12.57
2023-01-19T07:21:19.170Z,13.45
2023-01-19T07:23:52.137Z,11.82
2023-01-19T07:26:21.378Z,12.38
2023-01-19T07:28:49.326Z,11.05
2023-01-19T07:31:16.420Z,10.05
2023-01-19T07:33:43.448Z,15.20
2023-01-19T07:36:10.690Z,16.00
2023-01-19T07:38:37.485Z,13.63
2023-01-19T07:41:06.242Z,15.27
2023-01-19T07:43:33.935Z,12.10
2023-01-19T07:46:02.985Z,15.18
2023-01-19T07:48:29.996Z,12.63
2023-01-19T07:51:01.113Z,11.10
2023-01-19T07:53:27.953Z,11.77
2023-01-19T07:55:56.744Z,13.05
2023-01-19T07:58:24.815Z,17.33
2023-01-19T08:00:51.829Z,12.43
2023-01-19T08:03:18.734Z,14.90
2023-01-19T08:05:50.135Z,14.50
2023-01-19T08:08:16.916Z,14.55
2023-01-19T08:10:43.734Z,14.68
2023-01-19T08:13:10.464Z,14.15
2023-01-19T08:15:37.576Z,16.55
2023-01-19T08:18:09.742Z,16.38
2023-01-19T08:20:36.562Z,23.00
2023-01-19T08:23:04.759Z,25.98
2023-01-19T08:25:44.259Z,24.80
2023-01-19T08:28:13.541Z,25.08
2023-01-19T08:30:53.524Z,25.45
2023-01-19T08:33:21.961Z,23.77
2023-01-19T08:35:51.272Z,22.60
2023-01-19T08:38:18.352Z,18.63
2023-01-19T08:40:45.234Z,16.27
2023-01-19T08:43:14.567Z,16.52
2023-01-19T08:45:49.198Z,18.38
2023-01-19T08:48:18.083Z,15.95
2023-01-19T08:50:48.897Z,16.00
2023-01-19T08:53:16.012Z,20.10
2023-01-19T08:55:43.182Z,16.33
2023-01-19T08:58:10.633Z,17.73
2023-01-19T09:00:39.041Z,17.40
2023-01-19T09:03:07.760Z,19.58
2023-01-19T09:05:38.949Z,17.35
2023-01-19T09:08:09.505Z,17.85
2023-01-19T09:10:38.013Z,20.45
2023-01-19T09:13:11.022Z,21.10
2023-01-19T09:15:39.396Z,18.85
2023-01-19T09:18:10.429Z,21.65
2023-01-19T09:20:39.063Z,25.17
2023-01-19T09:23:06.246Z,20.05
2023-01-19T09:25:33.048Z,20.95
2023-01-19T09:28:00.849Z,19.33
2023-01-19T09:30:28.136Z,19.58
2023-01-19T09:32:54.974Z,20.05
2023-01-19T09:35:21.815Z,19.00
2023-01-19T09:37:56.143Z,19.25
2023-01-19T09:40:22.921Z,22.67
2023-01-19T09:43:14.889Z,22.23
2023-01-19T09:45:48.162Z,20.08
2023-01-19T09:48:26.219Z,17.67
2023-01-19T09:50:55.980Z,20.40
2023-01-19T09:53:43.322Z,17.75
2023-01-19T09:56:16.735Z,21.13
2023-01-19T09:58:43.685Z,19.73
2023-01-19T10:01:39.053Z,20.63
2023-01-19T10:06:33.933Z,20.90
2023-01-19T10:09:27.342Z,20.13
2023-01-19T10:12:19.087Z,19.23
2023-01-19T10:14:58.577Z,21.33
2023-01-19T10:17:51.575Z,20.02
2023-01-19T10:20:34.867Z,18.83
2023-01-19T10:23:04.970Z,18.23
2023-01-19T10:25:46.478Z,19.60
2023-01-19T10:28:25.786Z,20.83
2023-01-19T10:30:55.121Z,16.02
2023-01-19T10:33:22.290Z,18.77
2023-01-19T10:35:49.537Z,16.42
2023-01-19T10:38:22.035Z,17.27
2023-01-19T10:40:57.732Z,16.90
2023-01-19T10:43:43.013Z,18.70
2023-01-19T10:46:19.216Z,19.00
2023-01-19T10:48:49.432Z,21.00
2023-01-19T10:51:16.546Z,17.10
2023-01-19T10:56:40.865Z,17.80
2023-01-19T10:59:34.807Z,18.23
2023-01-19T11:02:18.492Z,18.80
2023-01-19T11:04:49.930Z,20.10
2023-01-19T11:07:33.776Z,19.15
2023-01-19T11:10:15.604Z,18.25
2023-01-19T11:12:58.376Z,15.93
2023-01-19T11:15:30.596Z,16.30
2023-01-19T11:17:57.968Z,16.05
2023-01-19T11:20:35.909Z,18.50
2023-01-19T11:23:17.789Z,18.85
2023-01-19T11:25:49.243Z,16.15
2023-01-19T11:28:20.579Z,15.45
2023-01-19T11:31:02.249Z,17.55
2023-01-19T11:33:40.951Z,16.80
2023-01-19T11:36:18.628Z,15.52
2023-01-19T11:38:48.969Z,16.30
2023-01-19T11:41:34.547Z,16.88
2023-01-19T11:44:26.113Z,15.30
2023-01-19T11:46:57.612Z,15.25
2023-01-19T11:49:39.287Z,16.33
2023-01-19T11:52:19.810Z,16.25
2023-01-19T11:54:55.643Z,14.63
2023-01-19T11:57:22.484Z,15.93
2023-01-19T11:59:52.166Z,15.18
2023-01-19T12:02:44.079Z,13.95
2023-01-19T12:05:15.849Z,14.60
2023-01-19T12:07:47.613Z,13.40
2023-01-19T12:10:28.210Z,13.45
2023-01-19T12:12:56.668Z,12.25
2023-01-19T12:15:36.844Z,14.68
2023-01-19T12:18:07.634Z,13.27
2023-01-19T12:20:39.024Z,12.77
2023-01-19T12:23:19.355Z,14.60
2023-01-19T12:26:10.117Z,12.18
2023-01-19T12:28:40.895Z,14.07
2023-01-19T12:31:10.401Z,12.35
2023-01-19T12:33:40.554Z,11.82
2023-01-19T12:36:41.213Z,10.60
2023-01-19T12:39:21.584Z,11.05
2023-01-19T12:42:03.348Z,10.05
2023-01-19T12:44:34.148Z,9.63
2023-01-19T12:47:24.187Z,10.55
2023-01-19T12:49:55.802Z,10.02
2023-01-19T12:52:26.749Z,11.52
2023-01-19T12:55:05.298Z,10.73
2023-01-19T12:57:34.246Z,11.00
2023-01-19T13:00:06.102Z,9.20
2023-01-19T13:02:46.530Z,10.60
2023-01-19T13:05:32.679Z,9.00
2023-01-19T13:08:02.949Z,11.07
2023-01-19T13:11:05.441Z,11.10
2023-01-19T13:13:40.167Z,9.68
2023-01-19T13:16:19.435Z,10.25
2023-01-19T13:18:57.008Z,9.55
2023-01-19T13:21:47.857Z,8.88
2023-01-19T13:24:17.434Z,8.45
2023-01-19T13:26:50.049Z,9.23
2023-01-19T13:29:16.899Z,9.38
2023-01-19T13:31:45.786Z,8.43
2023-01-19T13:34:16.821Z,8.63
2023-01-19T13:36:51.719Z,8.35
2023-01-19T13:42:22.982Z,7.72
2023-01-19T13:44:53.681Z,10.40
2023-01-19T13:47:23.844Z,7.97
2023-01-19T13:49:55.548Z,8.05
2023-01-19T13:52:27.622Z,8.25
2023-01-19T13:54:55.174Z,8.68
2023-01-19T13:57:30.733Z,8.52
2023-01-19T14:00:12.858Z,9.32
2023-01-19T14:03:21.715Z,9.90
2023-01-19T14:05:52.049Z,9.02
2023-01-19T14:08:20.133Z,8.00
2023-01-19T14:11:02.239Z,8.90
2023-01-19T14:13:33.919Z,8.50
2023-01-19T14:16:06.164Z,7.60
2023-01-19T14:18:35.330Z,8.25
2023-01-19T14:21:07.810Z,8.70
2023-01-19T14:23:47.302Z,9.65
2023-01-19T14:26:42.895Z,8.25
2023-01-19T14:29:21.051Z,9.77
2023-01-19T14:31:50.701Z,7.85
2023-01-19T14:34:48.245Z,8.68
2023-01-19T14:37:21.623Z,8.82
2023-01-19T14:39:53.193Z,10.48
2023-01-19T14:42:33.200Z,9.95
2023-01-19T14:45:14.995Z,9.85
2023-01-19T14:47:43.563Z,8.52
2023-01-19T14:50:34.584Z,9.85
2023-01-19T14:53:05.719Z,10.65
2023-01-19T14:55:37.715Z,11.23
2023-01-19T14:58:16.097Z,10.05
2023-01-19T15:00:43.964Z,10.77
2023-01-19T15:03:10.803Z,10.43
2023-01-19T15:05:42.623Z,10.40
2023-01-19T15:08:15.339Z,9.68
2023-01-19T15:10:42.735Z,11.77
2023-01-19T15:13:18.479Z,10.93
2023-01-19T15:15:45.348Z,10.27
2023-01-19T15:18:17.159Z,10.30
2023-01-19T15:20:44.288Z,9.45
2023-01-19T15:23:11.743Z,11.30
2023-01-19T15:25:39.501Z,10.13
2023-01-19T15:28:11.819Z,8.88
2023-01-19T15:30:39.660Z,10.65
2023-01-19T15:33:06.559Z,9.50
2023-01-19T15:35:33.551Z,10.88
2023-01-19T15:38:00.231Z,10.32
2023-01-19T15:40:27.009Z,11.73
2023-01-19T15:42:53.801Z,10.48
2023-01-19T15:45:35.045Z,10.18
2023-01-19T15:48:04.411Z,10.35
2023-01-19T15:50:31.612Z,9.50
2023-01-19T15:52:58.882Z,10.10
2023-01-19T15:55:25.648Z,11.32
2023-01-19T15:57:52.655Z,10.98
2023-01-19T16:00:20.450Z,11.48
2023-01-19T16:02:47.365Z,11.38
2023-01-19T16:05:14.497Z,12.30
2023-01-19T16:07:41.300Z,9.95
2023-01-19T16:10:09.567Z,11.73
2023-01-19T16:12:36.903Z,10.20
2023-01-19T16:15:04.254Z,10.02
2023-01-19T16:17:31.345Z,11.15
2023-01-19T16:19:58.082Z,10.63
2023-01-19T16:22:24.843Z,10.82
2023-01-19T16:24:53.087Z,9.93
2023-01-19T16:27:19.907Z,10.82
2023-01-19T16:29:47.843Z,11.73
2023-01-19T16:32:15.633Z,12.73
2023-01-19T16:34:43.889Z,12.18
2023-01-19T16:37:11.112Z,12.70
2023-01-19T16:39:38.325Z,10.77
2023-01-19T16:42:05.110Z,11.18
2023-01-19T16:44:31.966Z,14.15
2023-01-19T16:46:58.852Z,12.00
2023-01-19T16:49:28.480Z,11.98
2023-01-19T16:51:56.032Z,11.52
2023-01-19T16:54:27.640Z,11.77
2023-01-19T16:56:58.651Z,12.80
2023-01-19T16:59:27.064Z,15.45
2023-01-19T17:01:54.726Z,13.35
2023-01-19T17:04:23.298Z,12.55
2023-01-19T17:06:50.167Z,10.82
2023-01-19T17:09:17.400Z,13.18
2023-01-19T17:11:44.605Z,11.93
2023-01-19T17:14:17.087Z,12.07
2023-01-19T17:16:44.267Z,12.38
2023-01-19T17:19:15.380Z,14.55
2023-01-19T17:21:45.960Z,12.18
2023-01-19T17:24:14.214Z,11.07
2023-01-19T17:26:42.170Z,12.90
2023-01-19T17:29:10.093Z,12.43
2023-01-19T17:31:37.366Z,11.65
2023-01-19T17:34:05.386Z,10.82
2023-01-19T17:36:33.385Z,13.63
2023-01-19T17:39:05.650Z,13.73
2023-01-19T17:41:34.992Z,12.13
2023-01-19T17:44:03.419Z,13.13
2023-01-19T17:46:31.813Z,11.57
2023-01-19T17:49:01.438Z,11.27
2023-01-19T17:51:31.668Z,12.88
2023-01-19T17:54:01.211Z,11.45
2023-01-19T17:56:30.439Z,12.20
2023-01-19T17:58:58.291Z,12.85
2023-01-19T18:01:30.977Z,13.20
2023-01-19T18:03:58.262Z,13.73
2023-01-19T18:06:25.224Z,12.25
2023-01-19T18:08:52.481Z,14.60
2023-01-19T18:11:21.816Z,13.52
2023-01-19T18:13:50.454Z,12.68
2023-01-19T18:16:21.810Z,13.30
2023-01-19T18:18:49.655Z,13.55
2023-01-19T18:21:17.582Z,13.80
2023-01-19T18:23:45.531Z,13.13
2023-01-19T18:26:18.771Z,12.60
2023-01-19T18:28:45.995Z,13.82
2023-01-19T18:31:16.310Z,12.93
2023-01-19T18:33:43.745Z,14.55
2023-01-19T18:36:10.952Z,13.45
2023-01-19T18:38:39.320Z,15.07
2023-01-19T18:41:15.420Z,13.23
2023-01-19T18:43:42.822Z,14.38
2023-01-19T18:46:10.286Z,14.93
2023-01-19T18:48:38.569Z,15.90
2023-01-19T18:51:10.693Z,15.43
2023-01-19T18:53:38.180Z,16.08
2023-01-19T18:56:05.905Z,15.48
2023-01-19T18:58:33.581Z,15.38
2023-01-19T19:01:01.568Z,16.73
2023-01-19T19:03:28.651Z,13.38
2023-01-19T19:05:55.472Z,12.65
2023-01-19T19:08:23.318Z,14.13
2023-01-19T19:10:50.112Z,15.25
2023-01-19T19:13:17.651Z,14.40
2023-01-19T19:15:44.596Z,14.35
2023-01-19T19:18:13.707Z,14.40
2023-01-19T19:20:43.149Z,15.00
2023-01-19T19:23:11.176Z,14.55
2023-01-19T19:25:38.708Z,13.55
2023-01-19T19:28:06.038Z,15.60
2023-01-19T19:30:34.570Z,15.00
2023-01-19T19:33:01.510Z,17.15
2023-01-19T19:35:28.277Z,14.23
2023-01-19T19:37:57.409Z,14.23
2023-01-19T19:40:26.414Z,15.95
2023-01-19T19:42:53.505Z,13.13
2023-01-19T19:45:20.434Z,15.02
2023-01-19T19:47:47.420Z,13.80
2023-01-19T19:50:14.608Z,12.70
2023-01-19T19:52:42.297Z,13.35
2023-01-19T19:55:10.434Z,10.93
2023-01-19T19:57:38.989Z,11.30
2023-01-19T20:00:06.863Z,11.57
2023-01-19T20:02:36.902Z,11.73
2023-01-19T20:05:04.694Z,10.48
2023-01-19T20:07:31.723Z,11.15
2023-01-19T20:09:58.883Z,11.50
2023-01-19T20:12:25.620Z,10.98
2023-01-19T20:14:52.370Z,9.80
2023-01-19T20:17:20.699Z,10.85
2023-01-19T20:19:48.933Z,9.82
2023-01-19T20:22:16.096Z,9.90
2023-01-19T20:24:43.314Z,11.50
2023-01-19T20:27:10.075Z,10.30
2023-01-19T20:29:36.824Z,10.77
2023-01-19T20:32:03.766Z,11.05
2023-01-19T20:34:33.537Z,13.27
2023-01-19T20:37:01.703Z,11.73
2023-01-19T20:39:33.013Z,13.35
2023-01-19T20:42:00.548Z,12.23
2023-01-19T20:44:27.391Z,12.70
2023-01-19T20:46:55.500Z,12.57
2023-01-19T20:49:22.845Z,13.52
2023-01-19T20:51:52.091Z,13.00
2023-01-19T20:54:22.192Z,10.70
2023-01-19T20:56:49.092Z,11.05
2023-01-19T20:59:16.147Z,14.45
2023-01-19T21:01:43.538Z,14.30
2023-01-19T21:04:12.400Z,14.63
2023-01-19T21:06:40.233Z,14.18
2023-01-19T21:09:08.599Z,18.17
2023-01-19T21:11:36.441Z,15.95
2023-01-19T21:14:03.723Z,14.50
2023-01-19T21:16:32.988Z,13.30
2023-01-19T21:19:00.226Z,12.52
2023-01-19T21:21:31.834Z,13.18
2023-01-19T21:24:01.210Z,17.00
2023-01-19T21:26:31.718Z,16.73
2023-01-19T21:28:59.389Z,14.95
2023-01-19T21:31:27.900Z,17.15
2023-01-19T21:33:55.566Z,16.33
2023-01-19T21:36:28.245Z,15.38
2023-01-19T21:39:00.641Z,15.32
2023-01-19T21:41:29.960Z,16.45
2023-01-19T21:43:58.376Z,16.98
2023-01-19T21:46:40.470Z,14.25
2023-01-19T21:49:18.469Z,15.10
2023-01-19T21:51:47.890Z,15.70
2023-01-19T21:54:14.873Z,13.50
2023-01-19T21:56:43.288Z,13.35
2023-01-19T21:59:12.970Z,12.82
2023-01-19T22:01:40.432Z,12.15
2023-01-19T22:04:08.915Z,10.27
2023-01-19T22:06:36.678Z,11.77
2023-01-19T22:09:03.936Z,12.00
2023-01-19T22:11:31.244Z,12.20
2023-01-19T22:14:01.162Z,10.75
2023-01-19T22:16:29.472Z,11.27
2023-01-19T22:18:59.515Z,11.52
2023-01-19T22:21:35.963Z,11.57
2023-01-19T22:24:04.618Z,15.55
2023-01-19T22:26:33.926Z,14.48
2023-01-19T22:29:02.133Z,13.20
2023-01-19T22:31:30.480Z,11.75
2023-01-19T22:33:57.924Z,10.98
2023-01-19T22:36:35.872Z,10.75
2023-01-19T22:39:13.519Z,12.07
2023-01-19T22:41:43.907Z,11.75
2023-01-19T22:44:16.103Z,11.55
2023-01-19T22:46:43.438Z,11.07
2023-01-19T22:49:13.864Z,12.18
2023-01-19T22:51:41.380Z,11.80
2023-01-19T22:54:08.575Z,11.57
2023-01-19T22:56:37.947Z,12.88
2023-01-19T22:59:06.179Z,11.35
2023-01-19T23:01:39.018Z,12.20
2023-01-19T23:04:07.603Z,12.43
2023-01-19T23:06:36.498Z,11.32
2023-01-19T23:09:12.796Z,15.07
2023-01-19T23:11:49.637Z,12.98
2023-01-19T23:14:20.462Z,12.68
2023-01-19T23:16:47.350Z,12.18
2023-01-19T23:19:17.229Z,12.45
2023-01-19T23:21:44.942Z,15.30
2023-01-19T23:24:12.121Z,14.70
2023-01-19T23:26:39.012Z,14.02
2023-01-19T23:29:15.341Z,13.65
2023-01-19T23:31:49.550Z,12.63
2023-01-19T23:34:17.319Z,15.43
2023-01-19T23:36:44.683Z,14.55
2023-01-19T23:39:17.584Z,14.55
2023-01-19T23:41:44.465Z,13.75
2023-01-19T23:44:11.545Z,11.90
2023-01-19T23:46:38.407Z,11.85
2023-01-19T23:49:05.332Z,12.50
2023-01-19T23:51:33.405Z,14.07
2023-01-19T23:54:00.752Z,12.60
2023-01-19T23:56:36.570Z,13.15
2023-01-19T23:59:11.696Z,14.77
